Lincoln, Idaho
Current Conditions -  °F | °C
As of 6:53 AM on Monday 26 Jan 2015 (Local Time) from KIDA Reporting Station
Clear Clear  
Wind Chill: 20°   Ceiling: Unl
Heat Index: 20°   Visibility: 10mi
Dew Point: 18°   Wind: 3mph
Humidity: 92%   Direction: 350°N
Pressure: 30.43"   Gusts: NA
Location:  43.498°N, 111.73°W
Report Text: KIDA 261353Z AUTO 35003KT 10SM CLR M07/M08 A3043 RMK AO2 SLP344 I1000 T10671078
Loading
Personal Weather Stations






























Interactive Weather Map New forecast layout! Learn more

10-Day Weather Forecast

Advertisements
Track Severe Weather on mobile